Flight Track Log - Related Links

Times and Time Zones

All times are in EDT time to prevent confusion due to time zone crossing. See the N865JM flight status page for this flight to view local times or setup timezone preferences in your user account.

Time Position Orientation Groundspeed Altitude Reporting Facility
EDT Latitude Longitude Course Direction KTS km/h feet Rate Location/Type
Mon 13:27:32 26.2681 -81.8697 22° Northeast 236 438 10.900  Level Miami Center
Mon 13:28:32 26.3483 -81.7781 46° Northeast 310 575 11.000 700 Climbing Miami Center
Mon 13:29:32 26.4017 -81.6878 57° Northeast 325 602 12.300 1.050 Climbing Miami Center
Mon 13:30:00 26.2966 -81.3267 74° East  Level Estimated
Mon 13:30:32 26.4503 -81.5992 58° Northeast 339 628 13.100  Level Miami Center
Mon 13:31:32 26.5036 -81.5017 59° Northeast 345 639 13.000  Descending Miami Center
Mon 13:32:32 26.5547 -81.4014 60° Northeast 359 665 13.100 50 Climbing Miami Center
Mon 13:33:32 26.6036 -81.3103 59° Northeast 370 686 13.100  Level Miami Center
Mon 13:34:32 26.6589 -81.2081 59° Northeast 375 695 13.100  Level Miami Center
Mon 13:35:32 26.7097 -81.1075 60° Northeast 375 695 13.100 -150 Level Miami Center
Mon 13:36:32 26.7650 -81.0050 59° Northeast 375 695 12.800 -1.200 Descending Miami Center
Mon 13:37:32 26.8181 -80.9044 59° Northeast 363 673 10.700 -1.400 Descending Miami Center
Mon 13:38:32 26.8244 -80.8208 85° East 290 538 10.000 -700 Descending Miami Center
Mon 13:39:32 26.7975 -80.7383 110° East 266 492 9.300 -1.100 Descending Miami Center
Mon 13:40:32 26.7681 -80.6653 114° Southeast 279 517 7.800 -1.550 Descending Miami Center
Mon 13:41:32 26.7367 -80.5831 113° Southeast 273 505 6.200 -1.500 Descending Miami Center
Mon 13:42:32 26.7114 -80.5125 112° Southeast 268 496 4.800 -1.450 Descending Miami Center
Mon 13:43:32 26.6969 -80.4258 101° East 261 483 3.300 -1.150 Descending Miami Center
Mon 13:44:32 26.6942 -80.3583 93° East 249 462 2.500 -650 Descending Miami Center
Mon 13:45:32 26.6900 -80.2722 93° East 249 462 2.000 -400 Descending Miami Center
Mon 13:46:32 26.6853 -80.2139 95° East 225 417 1.700 -300 Descending Miami Center
Mon 13:48:00 26.6202 -80.1453 50° Northeast  Level FlightAware Approximate
Mon 13:55:00 26.6667 -80.0833 50° Northeast  Level FlightAware Approximate
Mon 13:56:00 26.6832 -80.0956 50° Northeast  Level Estimated
Mon 13:57:00 26.6832 -80.0956 50° Northeast  Level Estimated

Login

Don't have an account? Register now (free) for customized features, flight alerts, and more!